sensor_id;sensor_type;location;lat;lon;timestamp;P1;durP1;ratioP1;P2;durP2;ratioP2
6348;SDS011;3207;42.648;23.406;2023-04-06T00:00:13;3.10;;;2.80;;
6348;SDS011;3207;42.648;23.406;2023-04-06T00:02:41;5.53;;;2.43;;
6348;SDS011;3207;42.648;23.406;2023-04-06T00:05:07;5.43;;;2.47;;
6348;SDS011;3207;42.648;23.406;2023-04-06T00:07:35;4.10;;;3.00;;
6348;SDS011;3207;42.648;23.406;2023-04-06T00:10:04;4.70;;;3.00;;
6348;SDS011;3207;42.648;23.406;2023-04-06T00:12:31;4.50;;;2.90;;
6348;SDS011;3207;42.648;23.406;2023-04-06T00:14:58;4.53;;;2.77;;
6348;SDS011;3207;42.648;23.406;2023-04-06T00:17:26;3.57;;;2.53;;
6348;SDS011;3207;42.648;23.406;2023-04-06T00:19:53;3.97;;;3.00;;
6348;SDS011;3207;42.648;23.406;2023-04-06T00:22:20;4.43;;;3.50;;
6348;SDS011;3207;42.648;23.406;2023-04-06T00:24:47;3.43;;;2.73;;
6348;SDS011;3207;42.648;23.406;2023-04-06T00:27:15;3.20;;;2.53;;
6348;SDS011;3207;42.648;23.406;2023-04-06T00:29:43;3.23;;;2.67;;
6348;SDS011;3207;42.648;23.406;2023-04-06T00:32:10;3.03;;;2.60;;
6348;SDS011;3207;42.648;23.406;2023-04-06T00:34:37;4.63;;;3.17;;
6348;SDS011;3207;42.648;23.406;2023-04-06T00:37:04;6.07;;;2.70;;
6348;SDS011;3207;42.648;23.406;2023-04-06T00:39:31;4.27;;;2.57;;
6348;SDS011;3207;42.648;23.406;2023-04-06T00:41:57;7.03;;;2.90;;
6348;SDS011;3207;42.648;23.406;2023-04-06T00:44:26;2.60;;;2.23;;
6348;SDS011;3207;42.648;23.406;2023-04-06T00:46:53;3.17;;;2.50;;
6348;SDS011;3207;42.648;23.406;2023-04-06T00:49:20;3.07;;;2.60;;
6348;SDS011;3207;42.648;23.406;2023-04-06T00:51:47;2.60;;;2.20;;
6348;SDS011;3207;42.648;23.406;2023-04-06T00:54:14;3.53;;;2.63;;
6348;SDS011;3207;42.648;23.406;2023-04-06T00:56:41;3.77;;;2.77;;
6348;SDS011;3207;42.648;23.406;2023-04-06T00:59:09;7.70;;;2.77;;
6348;SDS011;3207;42.648;23.406;2023-04-06T01:01:37;3.13;;;2.77;;
6348;SDS011;3207;42.648;23.406;2023-04-06T01:04:04;4.00;;;2.50;;
6348;SDS011;3207;42.648;23.406;2023-04-06T01:06:31;2.90;;;2.40;;
6348;SDS011;3207;42.648;23.406;2023-04-06T01:08:58;2.90;;;2.20;;
6348;SDS011;3207;42.648;23.406;2023-04-06T01:11:25;4.60;;;2.63;;
6348;SDS011;3207;42.648;23.406;2023-04-06T01:13:52;3.07;;;2.23;;
6348;SDS011;3207;42.648;23.406;2023-04-06T01:16:19;4.30;;;2.27;;
6348;SDS011;3207;42.648;23.406;2023-04-06T01:18:48;4.23;;;2.47;;
6348;SDS011;3207;42.648;23.406;2023-04-06T01:21:15;3.10;;;2.63;;
6348;SDS011;3207;42.648;23.406;2023-04-06T01:23:44;2.50;;;2.30;;
6348;SDS011;3207;42.648;23.406;2023-04-06T01:26:11;4.57;;;3.23;;
6348;SDS011;3207;42.648;23.406;2023-04-06T01:28:38;7.17;;;3.40;;
6348;SDS011;3207;42.648;23.406;2023-04-06T01:31:07;7.67;;;3.23;;
6348;SDS011;3207;42.648;23.406;2023-04-06T01:33:35;5.53;;;2.93;;
6348;SDS011;3207;42.648;23.406;2023-04-06T01:36:02;6.07;;;3.27;;
6348;SDS011;3207;42.648;23.406;2023-04-06T01:38:30;3.87;;;2.50;;
6348;SDS011;3207;42.648;23.406;2023-04-06T01:40:58;4.43;;;2.63;;
6348;SDS011;3207;42.648;23.406;2023-04-06T01:43:25;3.03;;;2.73;;
6348;SDS011;3207;42.648;23.406;2023-04-06T01:45:52;3.13;;;2.80;;
6348;SDS011;3207;42.648;23.406;2023-04-06T01:48:19;3.30;;;3.00;;
6348;SDS011;3207;42.648;23.406;2023-04-06T01:50:46;8.87;;;3.37;;
6348;SDS011;3207;42.648;23.406;2023-04-06T01:53:13;4.93;;;2.50;;
6348;SDS011;3207;42.648;23.406;2023-04-06T01:55:40;2.63;;;2.43;;
6348;SDS011;3207;42.648;23.406;2023-04-06T01:58:08;3.40;;;3.10;;
6348;SDS011;3207;42.648;23.406;2023-04-06T02:00:35;6.67;;;3.37;;
6348;SDS011;3207;42.648;23.406;2023-04-06T02:03:02;4.77;;;3.07;;
6348;SDS011;3207;42.648;23.406;2023-04-06T02:05:30;4.37;;;2.80;;
6348;SDS011;3207;42.648;23.406;2023-04-06T02:08:02;4.93;;;3.07;;
6348;SDS011;3207;42.648;23.406;2023-04-06T02:10:30;3.93;;;3.03;;
6348;SDS011;3207;42.648;23.406;2023-04-06T02:12:57;4.03;;;2.90;;
6348;SDS011;3207;42.648;23.406;2023-04-06T02:15:25;3.00;;;2.70;;
6348;SDS011;3207;42.648;23.406;2023-04-06T02:17:52;3.77;;;3.33;;
6348;SDS011;3207;42.648;23.406;2023-04-06T02:20:19;5.03;;;3.07;;
6348;SDS011;3207;42.648;23.406;2023-04-06T02:22:46;6.73;;;3.33;;
6348;SDS011;3207;42.648;23.406;2023-04-06T02:25:13;3.77;;;2.77;;
6348;SDS011;3207;42.648;23.406;2023-04-06T02:27:40;4.10;;;3.20;;
6348;SDS011;3207;42.648;23.406;2023-04-06T02:30:07;2.73;;;2.53;;
6348;SDS011;3207;42.648;23.406;2023-04-06T02:32:36;6.63;;;3.47;;
6348;SDS011;3207;42.648;23.406;2023-04-06T02:35:03;4.00;;;3.17;;
6348;SDS011;3207;42.648;23.406;2023-04-06T02:37:31;3.23;;;2.50;;
6348;SDS011;3207;42.648;23.406;2023-04-06T02:39:58;3.50;;;2.40;;
6348;SDS011;3207;42.648;23.406;2023-04-06T02:42:24;3.83;;;3.30;;
6348;SDS011;3207;42.648;23.406;2023-04-06T02:44:51;4.50;;;3.03;;
6348;SDS011;3207;42.648;23.406;2023-04-06T02:47:18;5.70;;;2.47;;
6348;SDS011;3207;42.648;23.406;2023-04-06T02:49:47;6.20;;;3.47;;
6348;SDS011;3207;42.648;23.406;2023-04-06T02:52:14;3.80;;;3.37;;
6348;SDS011;3207;42.648;23.406;2023-04-06T02:54:42;3.87;;;2.90;;
6348;SDS011;3207;42.648;23.406;2023-04-06T02:57:09;4.53;;;3.40;;
6348;SDS011;3207;42.648;23.406;2023-04-06T02:59:36;8.67;;;3.70;;
6348;SDS011;3207;42.648;23.406;2023-04-06T03:02:03;4.47;;;3.33;;
6348;SDS011;3207;42.648;23.406;2023-04-06T03:04:30;3.80;;;3.50;;
6348;SDS011;3207;42.648;23.406;2023-04-06T03:06:58;6.67;;;3.53;;
6348;SDS011;3207;42.648;23.406;2023-04-06T03:09:25;3.37;;;3.07;;
6348;SDS011;3207;42.648;23.406;2023-04-06T03:11:52;3.47;;;3.17;;
6348;SDS011;3207;42.648;23.406;2023-04-06T03:14:20;4.30;;;3.90;;
6348;SDS011;3207;42.648;23.406;2023-04-06T03:16:47;6.70;;;3.53;;
6348;SDS011;3207;42.648;23.406;2023-04-06T03:19:14;7.50;;;3.30;;
6348;SDS011;3207;42.648;23.406;2023-04-06T03:21:41;7.27;;;3.00;;
6348;SDS011;3207;42.648;23.406;2023-04-06T03:24:10;7.27;;;3.37;;
6348;SDS011;3207;42.648;23.406;2023-04-06T03:26:38;5.27;;;3.17;;
6348;SDS011;3207;42.648;23.406;2023-04-06T03:29:04;4.33;;;3.10;;
6348;SDS011;3207;42.648;23.406;2023-04-06T03:31:31;4.77;;;3.57;;
6348;SDS011;3207;42.648;23.406;2023-04-06T03:33:58;3.97;;;3.57;;
6348;SDS011;3207;42.648;23.406;2023-04-06T03:36:25;5.33;;;4.90;;
6348;SDS011;3207;42.648;23.406;2023-04-06T03:38:52;4.17;;;3.73;;
6348;SDS011;3207;42.648;23.406;2023-04-06T03:41:21;5.77;;;3.33;;
6348;SDS011;3207;42.648;23.406;2023-04-06T03:43:47;4.40;;;3.83;;
6348;SDS011;3207;42.648;23.406;2023-04-06T03:46:15;9.53;;;4.20;;
6348;SDS011;3207;42.648;23.406;2023-04-06T03:48:41;3.43;;;3.13;;
6348;SDS011;3207;42.648;23.406;2023-04-06T03:51:08;5.37;;;3.93;;
6348;SDS011;3207;42.648;23.406;2023-04-06T03:53:35;7.03;;;3.97;;
6348;SDS011;3207;42.648;23.406;2023-04-06T03:56:03;6.43;;;4.27;;
6348;SDS011;3207;42.648;23.406;2023-04-06T03:58:32;7.97;;;4.07;;
6348;SDS011;3207;42.648;23.406;2023-04-06T04:00:58;7.33;;;3.90;;
6348;SDS011;3207;42.648;23.406;2023-04-06T04:03:25;4.00;;;3.60;;
6348;SDS011;3207;42.648;23.406;2023-04-06T04:05:53;4.67;;;4.27;;
6348;SDS011;3207;42.648;23.406;2023-04-06T04:08:20;4.47;;;4.07;;
6348;SDS011;3207;42.648;23.406;2023-04-06T04:10:47;4.43;;;3.80;;
6348;SDS011;3207;42.648;23.406;2023-04-06T04:13:14;6.27;;;4.10;;
6348;SDS011;3207;42.648;23.406;2023-04-06T04:15:42;6.73;;;4.47;;
6348;SDS011;3207;42.648;23.406;2023-04-06T04:18:09;11.47;;;4.93;;
6348;SDS011;3207;42.648;23.406;2023-04-06T04:20:36;5.93;;;4.67;;
6348;SDS011;3207;42.648;23.406;2023-04-06T04:23:03;8.83;;;4.13;;
6348;SDS011;3207;42.648;23.406;2023-04-06T04:25:30;7.20;;;4.77;;
6348;SDS011;3207;42.648;23.406;2023-04-06T04:27:56;6.17;;;5.17;;
6348;SDS011;3207;42.648;23.406;2023-04-06T04:30:23;7.80;;;4.37;;
6348;SDS011;3207;42.648;23.406;2023-04-06T04:32:52;5.13;;;4.60;;
6348;SDS011;3207;42.648;23.406;2023-04-06T04:35:19;6.40;;;4.43;;
6348;SDS011;3207;42.648;23.406;2023-04-06T04:37:46;5.20;;;4.23;;
6348;SDS011;3207;42.648;23.406;2023-04-06T04:40:12;11.47;;;4.90;;
6348;SDS011;3207;42.648;23.406;2023-04-06T04:42:40;6.83;;;5.00;;
6348;SDS011;3207;42.648;23.406;2023-04-06T04:45:07;6.77;;;4.60;;
6348;SDS011;3207;42.648;23.406;2023-04-06T04:47:34;10.83;;;4.40;;
6348;SDS011;3207;42.648;23.406;2023-04-06T04:50:02;6.57;;;5.07;;
6348;SDS011;3207;42.648;23.406;2023-04-06T04:52:30;9.60;;;5.53;;
6348;SDS011;3207;42.648;23.406;2023-04-06T04:54:57;7.80;;;5.40;;
6348;SDS011;3207;42.648;23.406;2023-04-06T04:57:24;9.43;;;5.30;;
6348;SDS011;3207;42.648;23.406;2023-04-06T04:59:50;8.40;;;6.20;;
6348;SDS011;3207;42.648;23.406;2023-04-06T05:02:17;8.40;;;5.37;;
6348;SDS011;3207;42.648;23.406;2023-04-06T05:04:44;11.03;;;4.60;;
6348;SDS011;3207;42.648;23.406;2023-04-06T05:07:12;9.07;;;5.47;;
6348;SDS011;3207;42.648;23.406;2023-04-06T05:09:40;8.07;;;5.30;;
6348;SDS011;3207;42.648;23.406;2023-04-06T05:12:08;10.27;;;5.57;;
6348;SDS011;3207;42.648;23.406;2023-04-06T05:14:35;14.83;;;6.33;;
6348;SDS011;3207;42.648;23.406;2023-04-06T05:17:02;9.13;;;5.83;;
6348;SDS011;3207;42.648;23.406;2023-04-06T05:19:29;11.07;;;6.20;;
6348;SDS011;3207;42.648;23.406;2023-04-06T05:21:56;9.00;;;4.87;;
6348;SDS011;3207;42.648;23.406;2023-04-06T05:24:24;16.27;;;6.17;;
6348;SDS011;3207;42.648;23.406;2023-04-06T05:26:51;9.40;;;6.57;;
6348;SDS011;3207;42.648;23.406;2023-04-06T05:29:18;11.33;;;6.27;;
6348;SDS011;3207;42.648;23.406;2023-04-06T05:31:46;10.00;;;6.57;;
6348;SDS011;3207;42.648;23.406;2023-04-06T05:34:13;11.37;;;6.03;;
6348;SDS011;3207;42.648;23.406;2023-04-06T05:36:40;9.90;;;6.57;;
6348;SDS011;3207;42.648;23.406;2023-04-06T05:39:07;11.63;;;7.57;;
6348;SDS011;3207;42.648;23.406;2023-04-06T05:41:35;15.77;;;7.23;;
6348;SDS011;3207;42.648;23.406;2023-04-06T05:44:02;10.03;;;6.80;;
6348;SDS011;3207;42.648;23.406;2023-04-06T05:46:29;14.23;;;8.20;;
6348;SDS011;3207;42.648;23.406;2023-04-06T05:48:56;17.27;;;11.17;;
6348;SDS011;3207;42.648;23.406;2023-04-06T05:51:23;14.50;;;8.17;;
6348;SDS011;3207;42.648;23.406;2023-04-06T05:53:51;13.20;;;6.57;;
6348;SDS011;3207;42.648;23.406;2023-04-06T05:56:18;13.37;;;7.13;;
6348;SDS011;3207;42.648;23.406;2023-04-06T05:58:47;11.50;;;6.73;;
6348;SDS011;3207;42.648;23.406;2023-04-06T06:01:13;18.43;;;7.47;;
6348;SDS011;3207;42.648;23.406;2023-04-06T06:03:40;9.33;;;6.50;;
6348;SDS011;3207;42.648;23.406;2023-04-06T06:06:07;12.20;;;7.27;;
6348;SDS011;3207;42.648;23.406;2023-04-06T06:08:34;16.47;;;7.23;;
6348;SDS011;3207;42.648;23.406;2023-04-06T06:11:01;12.73;;;8.97;;
6348;SDS011;3207;42.648;23.406;2023-04-06T06:13:28;12.87;;;8.43;;
6348;SDS011;3207;42.648;23.406;2023-04-06T06:15:57;8.63;;;7.60;;
6348;SDS011;3207;42.648;23.406;2023-04-06T06:18:24;11.98;;;7.55;;
6348;SDS011;3207;42.648;23.406;2023-04-06T06:20:50;10.80;;;7.53;;
6348;SDS011;3207;42.648;23.406;2023-04-06T06:23:17;10.73;;;8.55;;
6348;SDS011;3207;42.648;23.406;2023-04-06T06:25:44;14.05;;;7.93;;
6348;SDS011;3207;42.648;23.406;2023-04-06T06:28:11;10.82;;;8.02;;
6348;SDS011;3207;42.648;23.406;2023-04-06T06:30:38;10.68;;;8.25;;
6348;SDS011;3207;42.648;23.406;2023-04-06T06:33:06;9.35;;;8.02;;
6348;SDS011;3207;42.648;23.406;2023-04-06T06:35:33;11.35;;;7.45;;
6348;SDS011;3207;42.648;23.406;2023-04-06T06:38:00;8.93;;;6.82;;
6348;SDS011;3207;42.648;23.406;2023-04-06T06:40:27;9.98;;;7.15;;
6348;SDS011;3207;42.648;23.406;2023-04-06T06:42:54;10.23;;;5.95;;
6348;SDS011;3207;42.648;23.406;2023-04-06T06:45:21;7.75;;;6.03;;
6348;SDS011;3207;42.648;23.406;2023-04-06T06:47:47;5.35;;;4.85;;
6348;SDS011;3207;42.648;23.406;2023-04-06T06:50:16;5.28;;;4.78;;
6348;SDS011;3207;42.648;23.406;2023-04-06T06:52:43;6.82;;;5.25;;
6348;SDS011;3207;42.648;23.406;2023-04-06T06:55:10;6.40;;;4.75;;
6348;SDS011;3207;42.648;23.406;2023-04-06T06:57:37;8.90;;;5.25;;
6348;SDS011;3207;42.648;23.406;2023-04-06T07:00:04;6.85;;;4.63;;
6348;SDS011;3207;42.648;23.406;2023-04-06T07:02:34;5.50;;;5.00;;
6348;SDS011;3207;42.648;23.406;2023-04-06T07:05:01;6.20;;;4.88;;
6348;SDS011;3207;42.648;23.406;2023-04-06T07:07:31;5.78;;;4.70;;
6348;SDS011;3207;42.648;23.406;2023-04-06T07:09:58;8.15;;;4.88;;
6348;SDS011;3207;42.648;23.406;2023-04-06T07:12:25;5.57;;;4.90;;
6348;SDS011;3207;42.648;23.406;2023-04-06T07:14:52;6.00;;;4.80;;
6348;SDS011;3207;42.648;23.406;2023-04-06T07:17:19;5.85;;;5.03;;
6348;SDS011;3207;42.648;23.406;2023-04-06T07:19:46;5.55;;;5.03;;
6348;SDS011;3207;42.648;23.406;2023-04-06T07:22:12;9.55;;;6.65;;
6348;SDS011;3207;42.648;23.406;2023-04-06T07:24:41;7.47;;;5.68;;
6348;SDS011;3207;42.648;23.406;2023-04-06T07:27:08;6.07;;;5.47;;
6348;SDS011;3207;42.648;23.406;2023-04-06T07:29:35;6.05;;;5.45;;
6348;SDS011;3207;42.648;23.406;2023-04-06T07:32:01;10.30;;;6.75;;
6348;SDS011;3207;42.648;23.406;2023-04-06T07:34:28;8.00;;;6.57;;
6348;SDS011;3207;42.648;23.406;2023-04-06T07:36:55;7.57;;;6.20;;
6348;SDS011;3207;42.648;23.406;2023-04-06T07:39:23;8.25;;;7.03;;
6348;SDS011;3207;42.648;23.406;2023-04-06T07:41:52;6.60;;;5.90;;
6348;SDS011;3207;42.648;23.406;2023-04-06T07:44:19;6.88;;;6.28;;
6348;SDS011;3207;42.648;23.406;2023-04-06T07:46:46;6.05;;;5.13;;
6348;SDS011;3207;42.648;23.406;2023-04-06T07:49:13;6.70;;;5.38;;
6348;SDS011;3207;42.648;23.406;2023-04-06T07:51:40;6.28;;;5.15;;
6348;SDS011;3207;42.648;23.406;2023-04-06T07:54:07;5.53;;;5.03;;
6348;SDS011;3207;42.648;23.406;2023-04-06T07:56:34;5.28;;;4.88;;
6348;SDS011;3207;42.648;23.406;2023-04-06T07:59:02;5.68;;;5.18;;
6348;SDS011;3207;42.648;23.406;2023-04-06T08:01:29;5.50;;;4.78;;
6348;SDS011;3207;42.648;23.406;2023-04-06T08:03:56;4.90;;;4.50;;
6348;SDS011;3207;42.648;23.406;2023-04-06T08:06:23;5.32;;;4.82;;
6348;SDS011;3207;42.648;23.406;2023-04-06T08:08:50;6.38;;;5.25;;
6348;SDS011;3207;42.648;23.406;2023-04-06T08:11:17;8.35;;;7.65;;
6348;SDS011;3207;42.648;23.406;2023-04-06T08:13:44;6.05;;;5.50;;
6348;SDS011;3207;42.648;23.406;2023-04-06T08:16:12;6.78;;;6.03;;
6348;SDS011;3207;42.648;23.406;2023-04-06T08:18:39;6.25;;;4.95;;
6348;SDS011;3207;42.648;23.406;2023-04-06T08:21:06;5.40;;;4.90;;
6348;SDS011;3207;42.648;23.406;2023-04-06T08:23:32;5.32;;;4.82;;
6348;SDS011;3207;42.648;23.406;2023-04-06T08:26:00;5.82;;;5.35;;
6348;SDS011;3207;42.648;23.406;2023-04-06T08:28:27;7.47;;;5.10;;
6348;SDS011;3207;42.648;23.406;2023-04-06T08:30:53;7.03;;;5.25;;
6348;SDS011;3207;42.648;23.406;2023-04-06T08:33:22;5.80;;;5.15;;
6348;SDS011;3207;42.648;23.406;2023-04-06T08:35:49;6.40;;;5.75;;
6348;SDS011;3207;42.648;23.406;2023-04-06T08:38:16;6.68;;;6.10;;
6348;SDS011;3207;42.648;23.406;2023-04-06T08:40:43;6.30;;;5.78;;
6348;SDS011;3207;42.648;23.406;2023-04-06T08:43:13;5.88;;;5.38;;
6348;SDS011;3207;42.648;23.406;2023-04-06T08:45:41;7.22;;;6.00;;
6348;SDS011;3207;42.648;23.406;2023-04-06T08:48:08;5.90;;;5.38;;
6348;SDS011;3207;42.648;23.406;2023-04-06T08:50:37;6.38;;;5.65;;
6348;SDS011;3207;42.648;23.406;2023-04-06T08:53:05;6.82;;;6.13;;
6348;SDS011;3207;42.648;23.406;2023-04-06T08:55:32;6.38;;;5.88;;
6348;SDS011;3207;42.648;23.406;2023-04-06T08:58:00;7.05;;;6.40;;
6348;SDS011;3207;42.648;23.406;2023-04-06T09:00:27;7.28;;;6.40;;
6348;SDS011;3207;42.648;23.406;2023-04-06T09:02:55;7.95;;;6.60;;
6348;SDS011;3207;42.648;23.406;2023-04-06T09:05:23;7.00;;;6.35;;
6348;SDS011;3207;42.648;23.406;2023-04-06T09:07:53;6.90;;;6.30;;
6348;SDS011;3207;42.648;23.406;2023-04-06T09:10:20;7.65;;;6.95;;
6348;SDS011;3207;42.648;23.406;2023-04-06T09:12:48;7.03;;;6.32;;
6348;SDS011;3207;42.648;23.406;2023-04-06T09:15:18;6.60;;;5.65;;
6348;SDS011;3207;42.648;23.406;2023-04-06T09:17:46;5.72;;;5.13;;
6348;SDS011;3207;42.648;23.406;2023-04-06T09:20:13;6.13;;;5.70;;
6348;SDS011;3207;42.648;23.406;2023-04-06T09:22:42;6.10;;;5.60;;
6348;SDS011;3207;42.648;23.406;2023-04-06T09:25:17;6.93;;;5.60;;
6348;SDS011;3207;42.648;23.406;2023-04-06T09:27:45;7.35;;;6.00;;
6348;SDS011;3207;42.648;23.406;2023-04-06T09:30:13;6.95;;;6.43;;
6348;SDS011;3207;42.648;23.406;2023-04-06T09:32:45;6.75;;;6.18;;
6348;SDS011;3207;42.648;23.406;2023-04-06T09:35:14;6.10;;;5.20;;
6348;SDS011;3207;42.648;23.406;2023-04-06T09:37:41;5.68;;;5.28;;
6348;SDS011;3207;42.648;23.406;2023-04-06T09:40:10;6.65;;;6.05;;
6348;SDS011;3207;42.648;23.406;2023-04-06T09:42:40;6.90;;;6.28;;
6348;SDS011;3207;42.648;23.406;2023-04-06T09:45:08;7.13;;;6.45;;
6348;SDS011;3207;42.648;23.406;2023-04-06T09:47:36;6.82;;;6.03;;
6348;SDS011;3207;42.648;23.406;2023-04-06T09:50:05;7.60;;;6.82;;
6348;SDS011;3207;42.648;23.406;2023-04-06T09:52:37;10.30;;;7.28;;
6348;SDS011;3207;42.648;23.406;2023-04-06T09:55:07;8.73;;;7.40;;
6348;SDS011;3207;42.648;23.406;2023-04-06T09:57:37;6.93;;;6.35;;
6348;SDS011;3207;42.648;23.406;2023-04-06T10:00:13;9.23;;;6.90;;
6348;SDS011;3207;42.648;23.406;2023-04-06T10:02:48;7.05;;;6.45;;
6348;SDS011;3207;42.648;23.406;2023-04-06T10:05:20;6.78;;;6.28;;
6348;SDS011;3207;42.648;23.406;2023-04-06T10:07:54;6.82;;;6.22;;
6348;SDS011;3207;42.648;23.406;2023-04-06T10:10:27;7.20;;;6.57;;
6348;SDS011;3207;42.648;23.406;2023-04-06T10:12:55;6.22;;;5.63;;
6348;SDS011;3207;42.648;23.406;2023-04-06T10:15:24;6.03;;;5.53;;
6348;SDS011;3207;42.648;23.406;2023-04-06T10:17:51;5.97;;;5.47;;
6348;SDS011;3207;42.648;23.406;2023-04-06T10:20:21;9.05;;;5.45;;
6348;SDS011;3207;42.648;23.406;2023-04-06T10:22:55;7.57;;;6.05;;
6348;SDS011;3207;42.648;23.406;2023-04-06T10:25:30;5.90;;;5.35;;
6348;SDS011;3207;42.648;23.406;2023-04-06T10:28:01;6.10;;;5.57;;
6348;SDS011;3207;42.648;23.406;2023-04-06T10:30:31;7.38;;;5.35;;
6348;SDS011;3207;42.648;23.406;2023-04-06T10:32:59;5.75;;;5.25;;
6348;SDS011;3207;42.648;23.406;2023-04-06T10:35:36;6.22;;;5.68;;
6348;SDS011;3207;42.648;23.406;2023-04-06T10:38:04;6.13;;;5.60;;
6348;SDS011;3207;42.648;23.406;2023-04-06T10:40:35;6.70;;;6.03;;
6348;SDS011;3207;42.648;23.406;2023-04-06T10:43:08;5.75;;;5.25;;
6348;SDS011;3207;42.648;23.406;2023-04-06T10:45:36;5.05;;;4.65;;
6348;SDS011;3207;42.648;23.406;2023-04-06T10:48:13;5.78;;;4.85;;
6348;SDS011;3207;42.648;23.406;2023-04-06T10:50:41;5.63;;;5.05;;
6348;SDS011;3207;42.648;23.406;2023-04-06T10:53:08;5.28;;;4.78;;
6348;SDS011;3207;42.648;23.406;2023-04-06T10:55:36;4.28;;;3.72;;
6348;SDS011;3207;42.648;23.406;2023-04-06T10:58:06;3.75;;;3.55;;
6348;SDS011;3207;42.648;23.406;2023-04-06T11:00:33;4.53;;;3.92;;
6348;SDS011;3207;42.648;23.406;2023-04-06T11:03:00;4.22;;;3.92;;
6348;SDS011;3207;42.648;23.406;2023-04-06T11:05:28;6.60;;;4.45;;
6348;SDS011;3207;42.648;23.406;2023-04-06T11:07:56;4.45;;;4.03;;
6348;SDS011;3207;42.648;23.406;2023-04-06T11:10:23;4.53;;;4.15;;
6348;SDS011;3207;42.648;23.406;2023-04-06T11:12:54;4.53;;;3.58;;
6348;SDS011;3207;42.648;23.406;2023-04-06T11:15:21;3.75;;;3.50;;
6348;SDS011;3207;42.648;23.406;2023-04-06T11:17:49;4.13;;;3.75;;
6348;SDS011;3207;42.648;23.406;2023-04-06T11:20:16;9.85;;;3.70;;
6348;SDS011;3207;42.648;23.406;2023-04-06T11:22:48;4.28;;;3.88;;
6348;SDS011;3207;42.648;23.406;2023-04-06T11:25:16;3.40;;;3.17;;
6348;SDS011;3207;42.648;23.406;2023-04-06T11:27:44;3.55;;;3.25;;
6348;SDS011;3207;42.648;23.406;2023-04-06T11:30:13;3.95;;;3.65;;
6348;SDS011;3207;42.648;23.406;2023-04-06T11:32:41;4.65;;;3.83;;
6348;SDS011;3207;42.648;23.406;2023-04-06T11:35:10;3.83;;;3.53;;
6348;SDS011;3207;42.648;23.406;2023-04-06T11:37:38;4.32;;;3.92;;
6348;SDS011;3207;42.648;23.406;2023-04-06T11:40:07;5.68;;;4.03;;
6348;SDS011;3207;42.648;23.406;2023-04-06T11:42:35;5.45;;;3.97;;
6348;SDS011;3207;42.648;23.406;2023-04-06T11:45:02;4.80;;;4.40;;
6348;SDS011;3207;42.648;23.406;2023-04-06T11:47:32;4.53;;;4.13;;
6348;SDS011;3207;42.648;23.406;2023-04-06T11:50:05;4.63;;;4.18;;
6348;SDS011;3207;42.648;23.406;2023-04-06T11:52:33;4.10;;;3.80;;
6348;SDS011;3207;42.648;23.406;2023-04-06T11:55:09;4.97;;;4.47;;
6348;SDS011;3207;42.648;23.406;2023-04-06T11:57:38;5.47;;;3.55;;
6348;SDS011;3207;42.648;23.406;2023-04-06T12:00:07;3.08;;;2.88;;
6348;SDS011;3207;42.648;23.406;2023-04-06T12:02:36;4.28;;;3.88;;
6348;SDS011;3207;42.648;23.406;2023-04-06T12:05:03;3.70;;;2.88;;
6348;SDS011;3207;42.648;23.406;2023-04-06T12:07:32;5.78;;;5.10;;
6348;SDS011;3207;42.648;23.406;2023-04-06T12:10:00;4.28;;;3.83;;
6348;SDS011;3207;42.648;23.406;2023-04-06T12:12:28;3.50;;;3.17;;
6348;SDS011;3207;42.648;23.406;2023-04-06T12:14:55;4.72;;;3.25;;
6348;SDS011;3207;42.648;23.406;2023-04-06T12:17:22;4.60;;;3.28;;
6348;SDS011;3207;42.648;23.406;2023-04-06T12:19:51;3.47;;;3.15;;
6348;SDS011;3207;42.648;23.406;2023-04-06T12:22:18;4.68;;;3.10;;
6348;SDS011;3207;42.648;23.406;2023-04-06T12:24:45;3.55;;;3.22;;
6348;SDS011;3207;42.648;23.406;2023-04-06T12:27:12;3.50;;;3.20;;
6348;SDS011;3207;42.648;23.406;2023-04-06T12:29:39;2.78;;;2.53;;
6348;SDS011;3207;42.648;23.406;2023-04-06T12:32:06;2.95;;;2.70;;
6348;SDS011;3207;42.648;23.406;2023-04-06T12:34:33;3.30;;;2.90;;
6348;SDS011;3207;42.648;23.406;2023-04-06T12:37:01;2.80;;;2.60;;
6348;SDS011;3207;42.648;23.406;2023-04-06T12:39:28;3.70;;;3.03;;
6348;SDS011;3207;42.648;23.406;2023-04-06T12:41:56;4.15;;;3.17;;
6348;SDS011;3207;42.648;23.406;2023-04-06T12:44:22;4.20;;;3.30;;
6348;SDS011;3207;42.648;23.406;2023-04-06T12:46:49;4.50;;;3.30;;
6348;SDS011;3207;42.648;23.406;2023-04-06T12:49:17;3.35;;;2.80;;
6348;SDS011;3207;42.648;23.406;2023-04-06T12:51:44;3.50;;;3.13;;
6348;SDS011;3207;42.648;23.406;2023-04-06T12:54:13;3.53;;;3.22;;
6348;SDS011;3207;42.648;23.406;2023-04-06T12:56:39;4.93;;;3.20;;
6348;SDS011;3207;42.648;23.406;2023-04-06T12:59:06;3.13;;;2.55;;
6348;SDS011;3207;42.648;23.406;2023-04-06T13:01:33;2.70;;;2.50;;
6348;SDS011;3207;42.648;23.406;2023-04-06T13:04:00;3.45;;;2.80;;
6348;SDS011;3207;42.648;23.406;2023-04-06T13:06:27;2.65;;;2.45;;
6348;SDS011;3207;42.648;23.406;2023-04-06T13:08:55;3.10;;;2.80;;
6348;SDS011;3207;42.648;23.406;2023-04-06T13:11:23;3.38;;;2.53;;
6348;SDS011;3207;42.648;23.406;2023-04-06T13:13:51;4.78;;;3.00;;
6348;SDS011;3207;42.648;23.406;2023-04-06T13:16:18;3.58;;;3.28;;
6348;SDS011;3207;42.648;23.406;2023-04-06T13:18:45;4.80;;;3.58;;
6348;SDS011;3207;42.648;23.406;2023-04-06T13:21:13;2.95;;;2.70;;
6348;SDS011;3207;42.648;23.406;2023-04-06T13:23:41;11.05;;;3.25;;
6348;SDS011;3207;42.648;23.406;2023-04-06T13:26:09;4.93;;;3.22;;
6348;SDS011;3207;42.648;23.406;2023-04-06T13:28:37;5.85;;;3.05;;
6348;SDS011;3207;42.648;23.406;2023-04-06T13:31:04;3.53;;;3.10;;
6348;SDS011;3207;42.648;23.406;2023-04-06T13:33:32;6.85;;;3.50;;
6348;SDS011;3207;42.648;23.406;2023-04-06T13:35:59;4.25;;;3.10;;
6348;SDS011;3207;42.648;23.406;2023-04-06T13:38:26;2.75;;;2.55;;
6348;SDS011;3207;42.648;23.406;2023-04-06T13:40:53;3.50;;;3.20;;
6348;SDS011;3207;42.648;23.406;2023-04-06T13:43:21;5.10;;;3.22;;
6348;SDS011;3207;42.648;23.406;2023-04-06T13:45:51;4.47;;;3.33;;
6348;SDS011;3207;42.648;23.406;2023-04-06T13:48:19;3.20;;;2.92;;
6348;SDS011;3207;42.648;23.406;2023-04-06T13:50:46;3.50;;;3.05;;
6348;SDS011;3207;42.648;23.406;2023-04-06T13:53:13;4.28;;;3.10;;
6348;SDS011;3207;42.648;23.406;2023-04-06T13:55:40;3.80;;;2.95;;
6348;SDS011;3207;42.648;23.406;2023-04-06T13:58:07;3.50;;;3.20;;
6348;SDS011;3207;42.648;23.406;2023-04-06T14:00:34;3.38;;;3.08;;
6348;SDS011;3207;42.648;23.406;2023-04-06T14:03:03;2.97;;;2.67;;
6348;SDS011;3207;42.648;23.406;2023-04-06T14:05:30;3.22;;;2.92;;
6348;SDS011;3207;42.648;23.406;2023-04-06T14:07:57;3.90;;;3.55;;
6348;SDS011;3207;42.648;23.406;2023-04-06T14:10:24;3.95;;;3.13;;
6348;SDS011;3207;42.648;23.406;2023-04-06T14:12:52;4.13;;;2.95;;
6348;SDS011;3207;42.648;23.406;2023-04-06T14:15:19;6.10;;;3.05;;
6348;SDS011;3207;42.648;23.406;2023-04-06T14:17:47;4.47;;;3.38;;
6348;SDS011;3207;42.648;23.406;2023-04-06T14:20:15;5.65;;;3.20;;
6348;SDS011;3207;42.648;23.406;2023-04-06T14:22:42;4.03;;;2.97;;
6348;SDS011;3207;42.648;23.406;2023-04-06T14:25:09;7.03;;;3.67;;
6348;SDS011;3207;42.648;23.406;2023-04-06T14:27:36;2.72;;;2.53;;
6348;SDS011;3207;42.648;23.406;2023-04-06T14:30:03;3.22;;;2.92;;
6348;SDS011;3207;42.648;23.406;2023-04-06T14:32:30;3.72;;;2.83;;
6348;SDS011;3207;42.648;23.406;2023-04-06T14:34:57;5.78;;;2.92;;
6348;SDS011;3207;42.648;23.406;2023-04-06T14:37:25;3.40;;;3.10;;
6348;SDS011;3207;42.648;23.406;2023-04-06T14:39:52;3.70;;;2.92;;
6348;SDS011;3207;42.648;23.406;2023-04-06T14:42:19;4.07;;;3.67;;
6348;SDS011;3207;42.648;23.406;2023-04-06T14:44:46;3.45;;;3.10;;
6348;SDS011;3207;42.648;23.406;2023-04-06T14:47:13;5.22;;;3.47;;
6348;SDS011;3207;42.648;23.406;2023-04-06T14:49:45;3.38;;;3.08;;
6348;SDS011;3207;42.648;23.406;2023-04-06T14:52:12;3.70;;;3.10;;
6348;SDS011;3207;42.648;23.406;2023-04-06T14:54:40;3.58;;;3.13;;
6348;SDS011;3207;42.648;23.406;2023-04-06T14:57:07;5.00;;;3.40;;
6348;SDS011;3207;42.648;23.406;2023-04-06T14:59:33;3.60;;;3.30;;
6348;SDS011;3207;42.648;23.406;2023-04-06T15:02:01;5.22;;;3.85;;